VKG001 LEBL-LEPA
Flight info
| Callsign | VKG001 |
|---|---|
| Flight time | 0h 28m |
| Altitude | 17000 |
| Route | LARPA N859 TOLSO |
| Aircraft | A321/M-SDE3FGHIRWY/LB1 |
Departure
| Time | 2026-05-04 08:33 |
|---|---|
| Airport | Josep Tarradellas Barcelona-El Prat Airport (LEBL) |
Arrival
| Time | 2026-05-04 09:01 |
|---|---|
| Airport | Palma de Mallorca Airport (LEPA) |
| Time | Latitude | Longitude | Altitude | Speed | Heading |
|---|---|---|---|---|---|
| 2026-05-04 08:21 | 41.29044 | 2.08115 | 21 ft | 0 kts | 335° |
| 2026-05-04 08:27 | 41.28982 | 2.08152 | 25 ft | 4 kts | 335° |
| 2026-05-04 08:28 | 41.28965 | 2.08162 | 24 ft | 0 kts | 335° |
| 2026-05-04 08:31 | 41.28737 | 2.08389 | 22 ft | 7 kts | 62° |
| 2026-05-04 08:33 | 41.32493 | 2.11801 | 1775 ft | 164 kts | 106° |
| 2026-05-04 08:33 | 41.32070 | 2.13242 | 2132 ft | 175 kts | 114° |
| 2026-05-04 08:35 | 41.28626 | 2.26518 | 4943 ft | 230 kts | 111° |
| 2026-05-04 08:35 | 41.28121 | 2.28550 | 5415 ft | 232 kts | 111° |
| 2026-05-04 08:35 | 41.27610 | 2.30584 | 5929 ft | 231 kts | 114° |
| 2026-05-04 08:35 | 41.26934 | 2.32547 | 6236 ft | 242 kts | 120° |
| 2026-05-04 08:37 | 41.17983 | 2.40701 | 9765 ft | 282 kts | 161° |
| 2026-05-04 08:37 | 41.16136 | 2.41690 | 10273 ft | 294 kts | 161° |
| 2026-05-04 08:37 | 41.14168 | 2.42740 | 10437 ft | 316 kts | 161° |
| 2026-05-04 08:38 | 41.12052 | 2.43872 | 10570 ft | 339 kts | 160° |
| 2026-05-04 08:38 | 41.09799 | 2.45083 | 10693 ft | 359 kts | 160° |
| 2026-05-04 08:38 | 41.07446 | 2.46351 | 11110 ft | 369 kts | 160° |
| 2026-05-04 08:40 | 40.90374 | 2.56244 | 15167 ft | 395 kts | 160° |
| 2026-05-04 08:40 | 40.87846 | 2.57701 | 15671 ft | 398 kts | 160° |
| 2026-05-04 08:40 | 40.85294 | 2.59166 | 16145 ft | 402 kts | 160° |
| 2026-05-04 08:41 | 40.82718 | 2.60640 | 16649 ft | 405 kts | 161° |
| 2026-05-04 08:41 | 40.80119 | 2.62124 | 16932 ft | 407 kts | 161° |
| 2026-05-04 08:41 | 40.77493 | 2.63622 | 16993 ft | 419 kts | 161° |
| 2026-05-04 08:41 | 40.74807 | 2.65154 | 16993 ft | 429 kts | 160° |
| 2026-05-04 08:42 | 40.72060 | 2.66730 | 16991 ft | 431 kts | 160° |
| 2026-05-04 08:42 | 40.69302 | 2.68313 | 16987 ft | 433 kts | 160° |
| 2026-05-04 08:42 | 40.66501 | 2.69925 | 16992 ft | 434 kts | 160° |
| 2026-05-04 08:42 | 40.63734 | 2.71517 | 16991 ft | 434 kts | 160° |
| 2026-05-04 08:43 | 40.61004 | 2.73080 | 16995 ft | 434 kts | 160° |
| 2026-05-04 08:43 | 40.58199 | 2.74679 | 16997 ft | 434 kts | 160° |
| 2026-05-04 08:43 | 40.55459 | 2.76237 | 16997 ft | 434 kts | 160° |
| 2026-05-04 08:43 | 40.52686 | 2.77812 | 16997 ft | 434 kts | 160° |
| 2026-05-04 08:44 | 40.49918 | 2.79383 | 16994 ft | 434 kts | 160° |
| 2026-05-04 08:44 | 40.47146 | 2.80955 | 16995 ft | 434 kts | 160° |
| 2026-05-04 08:46 | 40.28145 | 2.91726 | 14288 ft | 408 kts | 160° |
| 2026-05-04 08:46 | 40.25560 | 2.93188 | 13710 ft | 403 kts | 160° |
| 2026-05-04 08:46 | 40.23002 | 2.94632 | 13117 ft | 397 kts | 159° |
| 2026-05-04 08:46 | 40.20478 | 2.96053 | 12565 ft | 391 kts | 160° |
| 2026-05-04 08:47 | 40.17999 | 2.97444 | 12029 ft | 385 kts | 160° |
| 2026-05-04 08:47 | 40.15548 | 2.98814 | 11483 ft | 381 kts | 160° |
| 2026-05-04 08:47 | 40.13149 | 3.00150 | 11275 ft | 367 kts | 160° |
| 2026-05-04 08:47 | 40.10851 | 3.01430 | 11155 ft | 352 kts | 160° |
| 2026-05-04 08:48 | 40.08642 | 3.02657 | 11030 ft | 338 kts | 160° |
| 2026-05-04 08:48 | 40.06524 | 3.03833 | 10906 ft | 325 kts | 160° |
| 2026-05-04 08:48 | 40.04480 | 3.04968 | 10782 ft | 313 kts | 160° |
| 2026-05-04 08:48 | 40.02518 | 3.06059 | 10654 ft | 301 kts | 160° |
| 2026-05-04 08:49 | 40.00619 | 3.07115 | 10449 ft | 293 kts | 160° |
| 2026-05-04 08:50 | 39.89285 | 3.11029 | 9188 ft | 279 kts | 188° |
| 2026-05-04 08:50 | 39.87382 | 3.10777 | 8783 ft | 278 kts | 187° |
| 2026-05-04 08:51 | 39.85457 | 3.10541 | 8384 ft | 277 kts | 187° |
| 2026-05-04 08:51 | 39.83546 | 3.10311 | 8016 ft | 275 kts | 187° |
| 2026-05-04 08:51 | 39.81650 | 3.10082 | 7656 ft | 273 kts | 187° |
| 2026-05-04 08:51 | 39.79762 | 3.09851 | 7268 ft | 272 kts | 187° |
| 2026-05-04 08:52 | 39.77884 | 3.09623 | 6897 ft | 270 kts | 187° |
| 2026-05-04 08:52 | 39.76017 | 3.09396 | 6520 ft | 269 kts | 187° |
| 2026-05-04 08:52 | 39.74165 | 3.09168 | 6146 ft | 267 kts | 188° |
| 2026-05-04 08:52 | 39.72359 | 3.08735 | 5784 ft | 261 kts | 201° |
| 2026-05-04 08:53 | 39.70785 | 3.07641 | 5500 ft | 256 kts | 218° |
| 2026-05-04 08:54 | 39.64446 | 2.95084 | 3346 ft | 209 kts | 238° |
| 2026-05-04 08:55 | 39.63711 | 2.93517 | 3086 ft | 196 kts | 237° |
| 2026-05-04 08:55 | 39.63030 | 2.92068 | 2825 ft | 182 kts | 237° |
| 2026-05-04 08:55 | 39.62393 | 2.90711 | 2581 ft | 170 kts | 237° |
| 2026-05-04 08:55 | 39.61795 | 2.89440 | 2386 ft | 158 kts | 237° |
| 2026-05-04 08:57 | 39.57977 | 2.81381 | 941 ft | 151 kts | 235° |
| 2026-05-04 09:01 | 39.55155 | 2.73858 | 38 ft | 10 kts | 320° |
| 2026-05-04 09:01 | 39.55168 | 2.73777 | 38 ft | 9 kts | 272° |
| 2026-05-04 09:01 | 39.55179 | 2.73704 | 38 ft | 8 kts | 263° |
| 2026-05-04 09:01 | 39.55154 | 2.73648 | 37 ft | 7 kts | 232° |
| 2026-05-04 09:02 | 39.55130 | 2.73599 | 38 ft | 6 kts | 240° |
| 2026-05-04 09:02 | 39.55101 | 2.73575 | 38 ft | 4 kts | 183° |
| 2026-05-04 09:02 | 39.55073 | 2.73582 | 38 ft | 4 kts | 167° |
| 2026-05-04 09:02 | 39.55069 | 2.73583 | 38 ft | 0 kts | 166° |